createdAt,value
2022-12-07T00:01:53.395Z,99766.61
2022-12-07T00:04:22.215Z,99766.61
2022-12-07T00:06:53.990Z,99767.49
2022-12-07T00:09:22.923Z,99756.34
2022-12-07T00:11:52.600Z,99756.34
2022-12-07T00:14:22.117Z,99755.48
2022-12-07T00:16:52.406Z,99751.20
2022-12-07T00:19:21.763Z,99752.92
2022-12-07T00:21:50.623Z,99752.09
2022-12-07T00:24:19.543Z,99744.39
2022-12-07T00:26:48.883Z,99746.12
2022-12-07T00:29:20.340Z,99746.14
2022-12-07T00:31:49.757Z,99747.88
2022-12-07T00:34:21.090Z,99741.02
2022-12-07T00:36:51.226Z,99742.80
2022-12-07T00:39:20.162Z,99735.95
2022-12-07T00:41:49.201Z,99733.39
2022-12-07T00:44:17.921Z,99732.56
2022-12-07T00:46:47.611Z,99725.77
2022-12-07T00:49:16.613Z,99729.23
2022-12-07T00:51:45.417Z,99731.02
2022-12-07T00:54:14.486Z,99731.93
2022-12-07T00:56:49.925Z,99722.55
2022-12-07T00:59:20.709Z,99728.60
2022-12-07T01:01:50.147Z,99726.06
2022-12-07T01:04:19.304Z,99727.86
2022-12-07T01:06:48.084Z,99729.64
2022-12-07T01:09:18.178Z,99733.13
2022-12-07T01:11:47.035Z,99720.36
2022-12-07T01:14:15.796Z,99722.15
2022-12-07T01:16:44.885Z,99717.92
2022-12-07T01:19:13.946Z,99716.24
2022-12-07T01:21:42.840Z,99714.58
2022-12-07T01:24:12.756Z,99718.89
2022-12-07T01:26:42.047Z,99719.83
2022-12-07T01:29:11.008Z,99722.40
2022-12-07T01:31:40.244Z,99719.00
2022-12-07T01:34:10.370Z,99722.47
2022-12-07T01:36:39.656Z,99721.64
2022-12-07T01:39:10.376Z,99715.67
2022-12-07T01:41:43.734Z,99714.88
2022-12-07T01:44:16.640Z,99708.91
2022-12-07T01:46:47.373Z,99713.20
2022-12-07T01:49:22.155Z,99714.95
2022-12-07T01:51:53.294Z,99718.41
2022-12-07T01:54:23.446Z,99711.59
2022-12-07T01:56:58.954Z,99716.73
2022-12-07T01:59:28.681Z,99714.18
2022-12-07T02:02:03.391Z,99710.77
2022-12-07T02:04:32.286Z,99706.51
2022-12-07T02:07:01.489Z,99709.94
2022-12-07T02:09:30.279Z,99707.41
2022-12-07T02:12:00.045Z,99706.53
2022-12-07T02:14:28.914Z,99703.11
2022-12-07T02:17:09.599Z,99707.42
2022-12-07T02:20:21.091Z,99704.00
2022-12-07T02:23:24.489Z,99704.84
2022-12-07T02:26:10.536Z,99705.73
2022-12-07T02:28:53.144Z,99704.00
2022-12-07T02:31:24.826Z,99704.00
2022-12-07T02:34:06.844Z,99699.70
2022-12-07T02:36:41.624Z,99704.84
2022-12-07T02:39:16.289Z,99699.70
2022-12-07T02:41:55.150Z,99694.56
2022-12-07T02:44:28.187Z,99694.56
2022-12-07T02:47:04.461Z,99698.87
2022-12-07T02:49:34.001Z,99693.72
2022-12-07T02:52:05.900Z,99691.15
2022-12-07T02:54:34.987Z,99693.72
2022-12-07T02:57:16.191Z,99691.15
2022-12-07T02:59:58.956Z,99693.67
2022-12-07T03:02:36.500Z,99692.81
2022-12-07T03:05:16.489Z,99690.20
2022-12-07T03:07:57.206Z,99690.16
2022-12-07T03:10:35.931Z,99690.16
2022-12-07T03:13:13.140Z,99690.14
2022-12-07T03:15:48.229Z,99689.25
2022-12-07T03:18:22.693Z,99688.41
2022-12-07T03:20:55.655Z,99689.23
2022-12-07T03:23:26.311Z,99678.06
2022-12-07T03:26:01.486Z,99682.31
2022-12-07T03:28:36.529Z,99680.58
2022-12-07T03:31:11.423Z,99675.39
2022-12-07T03:33:47.375Z,99673.66
2022-12-07T03:36:25.047Z,99677.05
2022-12-07T03:39:09.149Z,99671.92
2022-12-07T03:41:44.757Z,99675.31
2022-12-07T03:44:16.152Z,99676.14
2022-12-07T03:46:52.566Z,99672.69
2022-12-07T03:49:28.515Z,99668.39
2022-12-07T03:52:04.502Z,99661.50
2022-12-07T03:54:41.182Z,99658.89
2022-12-07T03:57:15.504Z,99655.43
2022-12-07T03:59:43.696Z,99654.57
2022-12-07T04:02:17.915Z,99656.25
2022-12-07T04:04:46.744Z,99659.66
2022-12-07T04:07:15.759Z,99658.77
2022-12-07T04:09:47.705Z,99655.34
2022-12-07T04:12:16.437Z,99645.86
2022-12-07T04:14:45.740Z,99650.14
2022-12-07T04:17:14.409Z,99653.55
2022-12-07T04:19:43.184Z,99651.81
2022-12-07T04:22:12.209Z,99656.06
2022-12-07T04:24:43.277Z,99659.47
2022-12-07T04:27:12.748Z,99649.14
2022-12-07T04:29:41.472Z,99649.98
2022-12-07T04:32:10.463Z,99649.97
2022-12-07T04:34:39.513Z,99643.94
2022-12-07T04:37:08.268Z,99646.49
2022-12-07T04:39:37.523Z,99647.33
2022-12-07T04:42:06.549Z,99649.89
2022-12-07T04:44:35.467Z,99654.14
2022-12-07T04:47:07.601Z,99648.95
2022-12-07T04:49:36.535Z,99650.66
2022-12-07T04:52:08.737Z,99648.92
2022-12-07T04:54:37.717Z,99642.89
2022-12-07T04:57:08.871Z,99647.15
2022-12-07T04:59:42.300Z,99646.28
2022-12-07T05:02:14.213Z,99638.53
2022-12-07T05:04:45.860Z,99635.91
2022-12-07T05:07:16.142Z,99629.03
2022-12-07T05:09:45.115Z,99633.28
2022-12-07T05:12:14.353Z,99628.98
2022-12-07T05:14:45.008Z,99628.97
2022-12-07T05:17:14.093Z,99623.82
2022-12-07T05:19:42.893Z,99627.17
2022-12-07T05:22:11.568Z,99622.92
2022-12-07T05:24:40.561Z,99628.89
2022-12-07T05:27:09.470Z,99626.31
2022-12-07T05:29:38.276Z,99620.28
2022-12-07T05:32:07.484Z,99628.82
2022-12-07T05:34:36.432Z,99628.81
2022-12-07T05:37:05.632Z,99629.64
2022-12-07T05:39:34.354Z,99627.91
2022-12-07T05:42:18.611Z,99627.91
2022-12-07T05:44:49.462Z,99629.57
2022-12-07T05:47:20.494Z,99635.54
2022-12-07T05:49:49.609Z,99630.41
2022-12-07T05:52:18.685Z,99635.48
2022-12-07T05:54:47.931Z,99638.03
2022-12-07T05:57:16.784Z,99636.30
2022-12-07T05:59:46.976Z,99637.13
2022-12-07T06:02:18.559Z,99633.69
2022-12-07T06:04:48.468Z,99635.41
2022-12-07T06:07:18.178Z,99636.23
2022-12-07T06:09:49.818Z,99632.77
2022-12-07T06:12:38.680Z,99625.06
2022-12-07T06:15:09.437Z,99630.15
2022-12-07T06:17:43.585Z,99629.28
2022-12-07T06:20:13.903Z,99627.55
2022-12-07T06:22:45.234Z,99626.66
2022-12-07T06:25:15.418Z,99623.25
2022-12-07T06:27:46.470Z,99621.52
2022-12-07T06:30:15.818Z,99626.66
2022-12-07T06:32:48.758Z,99623.20
2022-12-07T06:35:17.781Z,99624.92
2022-12-07T06:37:46.677Z,99619.79
2022-12-07T06:40:16.065Z,99622.36
2022-12-07T06:42:44.858Z,99623.20
2022-12-07T06:45:13.646Z,99621.51
2022-12-07T06:47:43.203Z,99625.76
2022-12-07T06:50:13.782Z,99629.16
2022-12-07T06:52:42.862Z,99630.04
2022-12-07T06:55:11.580Z,99616.31
2022-12-07T06:57:40.285Z,99620.61
2022-12-07T07:00:11.339Z,99618.89
2022-12-07T07:02:40.154Z,99618.05
2022-12-07T07:05:09.796Z,99620.61
2022-12-07T07:07:58.208Z,99628.31
2022-12-07T07:10:27.311Z,99621.45
2022-12-07T07:12:57.817Z,99632.60
2022-12-07T07:15:26.692Z,99625.76
2022-12-07T07:17:55.793Z,99624.91
2022-12-07T07:20:25.028Z,99623.20
2022-12-07T07:22:55.928Z,99620.64
2022-12-07T07:25:24.793Z,99618.95
2022-12-07T07:27:53.518Z,99618.95
2022-12-07T07:30:22.452Z,99631.80
2022-12-07T07:32:51.383Z,99624.16
2022-12-07T07:35:20.872Z,99630.13
2022-12-07T07:37:53.685Z,99625.00
2022-12-07T07:40:22.919Z,99629.30
2022-12-07T07:42:53.121Z,99629.31
2022-12-07T07:45:23.945Z,99631.05
2022-12-07T07:47:52.783Z,99628.52
2022-12-07T07:50:32.182Z,99626.82
2022-12-07T07:53:04.543Z,99629.44
2022-12-07T07:55:34.387Z,99626.88
2022-12-07T07:58:10.130Z,99629.52
2022-12-07T08:00:40.155Z,99633.82
2022-12-07T08:03:15.814Z,99629.57
2022-12-07T08:05:44.703Z,99631.27
2022-12-07T08:08:13.748Z,99627.91
2022-12-07T08:56:56.985Z,99641.67
2022-12-07T08:59:38.179Z,99645.20
2022-12-07T09:02:08.721Z,99647.84
2022-12-07T09:05:03.429Z,99639.34
2022-12-07T09:07:35.086Z,99631.70
2022-12-07T09:10:08.517Z,99630.06
2022-12-07T09:12:40.962Z,99632.70
2022-12-07T09:15:10.555Z,99621.63
2022-12-07T09:17:39.695Z,99629.39
2022-12-07T09:20:14.989Z,99626.87
2022-12-07T09:22:49.719Z,99620.09
2022-12-07T09:25:21.105Z,99612.40
2022-12-07T09:27:56.000Z,99609.03
2022-12-07T09:30:25.579Z,99610.80
2022-12-07T09:33:08.003Z,99611.69
2022-12-07T09:35:44.896Z,99608.28
2022-12-07T09:38:14.294Z,99607.48
2022-12-07T09:40:50.502Z,99606.64
2022-12-07T09:43:23.307Z,99604.11
2022-12-07T09:45:54.844Z,99606.69
2022-12-07T09:48:40.406Z,99603.27
2022-12-07T09:51:23.663Z,99607.57
2022-12-07T09:54:01.398Z,99600.74
2022-12-07T09:56:41.010Z,99607.66
2022-12-07T09:59:19.934Z,99599.10
2022-12-07T10:01:51.522Z,99600.02
2022-12-07T10:04:23.502Z,99597.48
2022-12-07T10:06:53.019Z,99598.38
2022-12-07T10:09:23.385Z,99595.84
2022-12-07T10:12:09.471Z,99600.99
2022-12-07T10:15:06.774Z,99600.18
2022-12-07T10:17:49.910Z,99594.19
2022-12-07T10:20:27.760Z,99595.91
2022-12-07T10:23:05.227Z,99599.38
2022-12-07T10:25:38.494Z,99596.80
2022-12-07T10:28:16.628Z,99590.77
2022-12-07T10:30:59.744Z,99596.80
2022-12-07T10:33:35.729Z,99589.08
2022-12-07T10:36:23.702Z,99600.25
2022-12-07T10:39:07.087Z,99590.80
2022-12-07T10:41:56.376Z,99594.23
2022-12-07T10:44:28.791Z,99593.38
2022-12-07T10:47:26.260Z,99595.98
2022-12-07T10:50:14.036Z,99592.57
2022-12-07T10:53:02.858Z,99585.73
2022-12-07T10:55:48.436Z,99590.03
2022-12-07T10:58:38.487Z,99584.88
2022-12-07T11:01:18.654Z,99589.22
2022-12-07T11:04:07.534Z,99591.80
2022-12-07T11:06:48.114Z,99588.34
2022-12-07T11:10:07.737Z,99591.80
2022-12-07T11:12:55.891Z,99587.45
2022-12-07T11:15:30.969Z,99589.99
2022-12-07T11:18:12.454Z,99583.13
2022-12-07T11:20:54.279Z,99585.69
2022-12-07T11:23:38.819Z,99579.66
2022-12-07T11:26:22.971Z,99585.66
2022-12-07T11:29:10.405Z,99581.36
2022-12-07T11:32:06.332Z,99571.91
2022-12-07T11:34:45.590Z,99582.23
2022-12-07T11:37:22.938Z,99576.24
2022-12-07T11:39:58.873Z,99581.42
2022-12-07T11:42:36.020Z,99572.86
2022-12-07T11:45:16.340Z,99571.97
2022-12-07T11:47:53.837Z,99570.25
2022-12-07T11:50:35.297Z,99564.22
2022-12-07T11:53:17.400Z,99559.95
2022-12-07T11:55:52.227Z,99561.64
2022-12-07T11:58:42.180Z,99560.80
2022-12-07T12:01:23.453Z,99563.37
2022-12-07T12:03:59.139Z,99569.36
2022-12-07T12:06:28.439Z,99563.34
2022-12-07T12:15:27.544Z,99554.66
2022-12-07T12:18:26.431Z,99561.50
2022-12-07T12:21:01.796Z,99553.78
2022-12-07T12:23:42.284Z,99552.94
2022-12-07T12:26:20.160Z,99541.80
2022-12-07T12:28:58.361Z,99534.08
2022-12-07T12:31:48.903Z,99545.25
2022-12-07T12:34:49.840Z,99544.37
2022-12-07T12:37:45.925Z,99544.37
2022-12-07T12:40:53.341Z,99542.64
2022-12-07T12:43:49.944Z,99542.61
2022-12-07T12:46:55.828Z,99533.16
2022-12-07T12:49:39.727Z,99534.85
2022-12-07T12:52:50.832Z,99532.24
2022-12-07T12:55:40.974Z,99533.09
2022-12-07T12:58:48.120Z,99533.97
2022-12-07T13:01:55.680Z,99532.20
2022-12-07T13:04:41.646Z,99528.75
2022-12-07T13:07:55.204Z,99532.17
2022-12-07T13:10:46.067Z,99531.32
2022-12-07T13:13:39.463Z,99530.44
2022-12-07T13:16:51.447Z,99530.44
2022-12-07T13:20:03.410Z,99526.17
2022-12-07T13:23:05.083Z,99519.30
2022-12-07T13:25:50.305Z,99516.73
2022-12-07T13:28:22.308Z,99515.84
2022-12-07T13:31:13.394Z,99516.73
2022-12-07T13:33:48.868Z,99523.56
2022-12-07T13:36:22.992Z,99523.53
2022-12-07T13:39:17.733Z,99530.40
2022-12-07T13:41:51.259Z,99529.48
2022-12-07T13:44:20.788Z,99532.05
2022-12-07T13:46:56.918Z,99538.88
2022-12-07T13:49:29.689Z,99533.70
2022-12-07T13:52:17.219Z,99533.66
2022-12-07T13:54:49.240Z,99536.22
2022-12-07T13:57:18.894Z,99531.92
2022-12-07T13:59:48.316Z,99530.20
2022-12-07T14:02:22.295Z,99535.30
2022-12-07T14:04:52.736Z,99534.41
2022-12-07T14:07:27.595Z,99540.35
2022-12-07T14:10:07.786Z,99544.61
2022-12-07T14:12:43.543Z,99536.00
2022-12-07T14:15:22.373Z,99530.81
2022-12-07T14:17:55.965Z,99538.48
2022-12-07T14:20:40.967Z,99532.45
2022-12-07T14:23:25.314Z,99535.02
2022-12-07T14:25:54.865Z,99541.00
2022-12-07T14:28:39.250Z,99539.23
2022-12-07T14:31:19.063Z,99535.77
2022-12-07T14:33:53.397Z,99547.73
2022-12-07T14:36:22.644Z,99533.98
2022-12-07T14:39:02.187Z,99542.53
2022-12-07T14:41:52.158Z,99548.45
2022-12-07T14:44:29.461Z,99536.39
2022-12-07T14:50:06.838Z,99534.56
2022-12-07T14:55:36.083Z,99531.10
2022-12-07T14:58:13.233Z,99531.94
2022-12-07T15:00:41.358Z,99528.48
2022-12-07T15:03:13.679Z,99532.72
2022-12-07T15:05:43.136Z,99522.41
2022-12-07T15:08:12.851Z,99520.67
2022-12-07T15:10:45.829Z,99526.64
2022-12-07T15:13:36.131Z,99523.23
2022-12-07T15:16:17.942Z,99523.17
2022-12-07T15:19:11.591Z,99513.74
2022-12-07T15:21:40.734Z,99512.01
2022-12-07T15:24:13.279Z,99516.30
2022-12-07T15:26:51.189Z,99516.30
2022-12-07T15:29:23.284Z,99518.87
2022-12-07T15:31:57.076Z,99512.01
2022-12-07T15:34:39.616Z,99510.28
2022-12-07T15:37:13.275Z,99512.01
2022-12-07T15:39:42.348Z,99519.72
2022-12-07T15:42:11.447Z,99508.59
2022-12-07T15:45:00.178Z,99512.02
2022-12-07T15:47:44.184Z,99511.17
2022-12-07T15:50:23.306Z,99505.20
2022-12-07T15:52:52.275Z,99506.09
2022-12-07T15:55:23.720Z,99512.07
2022-12-07T15:57:55.519Z,99507.83
2022-12-07T16:00:24.704Z,99501.84
2022-12-07T16:02:53.621Z,99502.73
2022-12-07T16:05:23.017Z,99501.86
2022-12-07T16:07:51.798Z,99505.30
2022-12-07T16:10:20.621Z,99500.17
2022-12-07T16:12:50.818Z,99504.47
2022-12-07T16:15:24.470Z,99506.20
2022-12-07T16:17:53.971Z,99500.22
2022-12-07T16:20:22.704Z,99499.38
2022-12-07T16:22:53.785Z,99505.36
2022-12-07T16:25:22.731Z,99500.22
2022-12-07T16:27:53.079Z,99494.20
2022-12-07T16:30:22.114Z,99501.89
2022-12-07T16:32:51.144Z,99508.72
2022-12-07T16:35:21.070Z,99510.39
2022-12-07T16:37:50.368Z,99503.52
2022-12-07T16:40:22.106Z,99501.78
2022-12-07T16:42:51.186Z,99504.35
2022-12-07T16:45:21.176Z,99499.22
2022-12-07T16:47:50.611Z,99494.94
2022-12-07T16:50:19.694Z,99493.25
2022-12-07T16:52:48.802Z,99491.53
2022-12-07T16:55:17.950Z,99494.98
2022-12-07T16:57:47.203Z,99487.28
2022-12-07T17:00:17.884Z,99493.30
2022-12-07T17:02:46.712Z,99490.73
2022-12-07T17:05:15.843Z,99489.02
2022-12-07T17:07:45.243Z,99489.90
2022-12-07T17:10:14.681Z,99487.33
2022-12-07T17:12:46.711Z,99486.48
2022-12-07T17:15:25.125Z,99493.36
2022-12-07T17:17:58.348Z,99486.55
2022-12-07T17:20:30.633Z,99476.27
2022-12-07T17:23:08.197Z,99484.03
2022-12-07T17:25:37.082Z,99484.03
2022-12-07T17:28:07.481Z,99476.32
2022-12-07T17:30:36.283Z,99487.44
2022-12-07T17:33:05.173Z,99489.17
2022-12-07T17:35:34.183Z,99490.05
2022-12-07T17:38:03.024Z,99490.06
2022-12-07T17:40:31.974Z,99487.53
2022-12-07T17:43:03.617Z,99493.52
2022-12-07T17:45:32.605Z,99503.84
2022-12-07T17:48:04.007Z,99499.59
2022-12-07T17:50:57.164Z,99499.59
2022-12-07T17:53:29.209Z,99488.44
2022-12-07T17:56:28.158Z,99497.86
2022-12-07T17:58:53.199Z,99493.57
2022-12-07T18:01:27.486Z,99491.05
2022-12-07T18:04:12.150Z,99488.47
2022-12-07T18:06:41.902Z,99490.20
2022-12-07T18:09:13.503Z,99482.50
2022-12-07T18:11:43.757Z,99493.67
2022-12-07T18:14:13.237Z,99491.14
2022-12-07T18:16:45.040Z,99491.14
2022-12-07T18:19:27.545Z,99494.59
2022-12-07T18:21:58.146Z,99495.48
2022-12-07T18:24:36.744Z,99497.21
2022-12-07T18:27:07.205Z,99502.36
2022-12-07T18:29:37.132Z,99501.52
2022-12-07T18:32:09.867Z,99499.80
2022-12-07T18:34:40.911Z,99508.39
2022-12-07T18:37:12.672Z,99500.67
2022-12-07T18:39:41.537Z,99507.55
2022-12-07T18:42:10.643Z,99504.13
2022-12-07T18:44:39.606Z,99510.12
2022-12-07T18:47:09.145Z,99520.40
2022-12-07T18:49:44.657Z,99521.28
2022-12-07T18:52:14.024Z,99522.13
2022-12-07T18:54:47.102Z,99523.84
2022-12-07T18:57:16.201Z,99528.95
2022-12-07T18:59:49.446Z,99528.95
2022-12-07T19:02:19.127Z,99530.67
2022-12-07T19:04:52.163Z,99530.67
2022-12-07T19:07:22.651Z,99524.64
2022-12-07T19:09:52.061Z,99525.48
2022-12-07T19:12:21.044Z,99531.47
2022-12-07T19:14:50.659Z,99528.89
2022-12-07T19:17:19.990Z,99538.33
2022-12-07T19:19:49.341Z,99538.33
2022-12-07T19:22:24.895Z,99545.15
2022-12-07T19:24:55.275Z,99551.13
2022-12-07T19:27:27.631Z,99545.15
2022-12-07T19:29:57.203Z,99557.12
2022-12-07T19:32:30.713Z,99556.27
2022-12-07T19:35:02.628Z,99563.09
2022-12-07T19:37:31.994Z,99558.80
2022-12-07T19:40:16.364Z,99560.52
2022-12-07T19:42:49.106Z,99559.63
2022-12-07T19:45:21.073Z,99567.28
2022-12-07T19:47:49.914Z,99567.23
2022-12-07T19:50:21.936Z,99569.80
2022-12-07T19:52:55.684Z,99562.88
2022-12-07T19:55:29.200Z,99583.42
2022-12-07T19:57:58.327Z,99586.78
2022-12-07T20:00:28.171Z,99591.06
2022-12-07T20:02:57.021Z,99599.55
2022-12-07T20:05:26.318Z,99596.03
2022-12-07T20:07:55.505Z,99598.53
2022-12-07T20:10:28.251Z,99601.87
2022-12-07T20:13:17.185Z,99601.75
2022-12-07T20:15:45.998Z,99602.46
2022-12-07T20:18:16.257Z,99599.83
2022-12-07T20:20:55.797Z,99603.99
2022-12-07T20:23:25.540Z,99613.30
2022-12-07T20:25:54.881Z,99618.34
2022-12-07T20:28:25.849Z,99618.29
2022-12-07T20:30:54.864Z,99619.11
2022-12-07T20:33:23.939Z,99625.90
2022-12-07T20:35:52.619Z,99627.55
2022-12-07T20:38:21.346Z,99625.76
2022-12-07T20:40:52.987Z,99628.27
2022-12-07T20:43:21.805Z,99628.25
2022-12-07T20:45:51.054Z,99629.09
2022-12-07T20:48:22.194Z,99637.66
2022-12-07T20:50:51.548Z,99636.76
2022-12-07T20:53:20.267Z,99640.97
2022-12-07T20:55:51.746Z,99639.18
2022-12-07T20:58:20.518Z,99641.66
2022-12-07T21:00:49.952Z,99649.29
2022-12-07T21:03:19.817Z,99640.68
2022-12-07T21:05:51.866Z,99640.66
2022-12-07T21:08:23.680Z,99647.45
2022-12-07T21:10:52.729Z,99637.15
2022-12-07T21:13:21.457Z,99650.77
2022-12-07T21:15:51.648Z,99659.22
2022-12-07T21:18:23.563Z,99657.47
2022-12-07T21:20:52.330Z,99658.23
2022-12-07T21:23:21.233Z,99660.78
2022-12-07T21:25:52.263Z,99669.28
2022-12-07T21:28:21.565Z,99675.19
2022-12-07T21:31:14.062Z,99670.89
2022-12-07T21:33:53.781Z,99670.87
2022-12-07T21:36:25.623Z,99670.87
2022-12-07T21:39:01.427Z,99669.13
2022-12-07T21:41:34.464Z,99668.23
2022-12-07T21:44:07.690Z,99660.55
2022-12-07T21:46:43.931Z,99663.94
2022-12-07T21:49:21.408Z,99665.65
2022-12-07T21:51:51.727Z,99669.06
2022-12-07T21:54:25.968Z,99664.84
2022-12-07T21:56:55.861Z,99658.05
2022-12-07T21:59:24.673Z,99657.23
2022-12-07T22:01:53.424Z,99656.46
2022-12-07T22:04:25.448Z,99660.72
2022-12-07T22:06:56.438Z,99653.98
2022-12-07T22:09:25.165Z,99658.32
2022-12-07T22:11:54.334Z,99663.52
2022-12-07T22:14:41.726Z,99669.56
2022-12-07T22:17:10.452Z,99668.75
2022-12-07T22:19:39.208Z,99667.09
2022-12-07T22:22:08.734Z,99666.30
2022-12-07T22:24:37.599Z,99659.48
2022-12-07T22:27:06.647Z,99660.36
2022-12-07T22:29:35.321Z,99668.91
2022-12-07T22:32:24.729Z,99668.91
2022-12-07T22:34:55.414Z,99663.76
2022-12-07T22:37:24.213Z,99667.17
2022-12-07T22:39:55.711Z,99665.44
2022-12-07T22:42:24.934Z,99664.61
2022-12-07T22:44:56.453Z,99656.06
2022-12-07T22:47:25.148Z,99650.95
2022-12-07T22:49:55.190Z,99652.69
2022-12-07T22:52:25.050Z,99663.84
2022-12-07T22:54:54.634Z,99663.84
2022-12-07T22:57:25.843Z,99667.26
2022-12-07T22:59:55.613Z,99663.86
2022-12-07T23:02:24.380Z,99657.05
2022-12-07T23:04:54.086Z,99657.95
2022-12-07T23:07:26.318Z,99651.94
2022-12-07T23:09:55.067Z,99655.41
2022-12-07T23:12:45.111Z,99661.38
2022-12-07T23:15:13.771Z,99658.81
2022-12-07T23:17:42.506Z,99659.70
2022-12-07T23:20:12.384Z,99665.67
2022-12-07T23:22:42.283Z,99662.28
2022-12-07T23:25:11.301Z,99669.14
2022-12-07T23:27:39.989Z,99681.13
2022-12-07T23:30:12.681Z,99679.41
2022-12-07T23:32:41.454Z,99685.43
2022-12-07T23:35:10.379Z,99675.17
2022-12-07T23:37:39.030Z,99682.03
2022-12-07T23:40:10.896Z,99675.23
2022-12-07T23:42:39.628Z,99669.27
2022-12-07T23:45:10.284Z,99671.00
2022-12-07T23:47:39.487Z,99665.89
2022-12-07T23:50:10.418Z,99661.61
2022-12-07T23:52:39.110Z,99663.34
2022-12-07T23:55:10.030Z,99664.17
2022-12-07T23:57:38.790Z,99669.30
